Portada
METAR-TAF:

METAR-TAF

Aeropuertos :

Aeropuerto Internacional La Tontouta

Nouméa / La Tontouta, Nueva Caledonia

latitud: 22-01S, longitud: 166-13E, altitud: 16 m

Observación

El informe se hizo hace 23 minutos, a las 13:30 UTC
Viento 2 kt con dirección variable
Temperatura 22°C
Humedad 78%
Presión 1013 hPa
Visibilidad 10 km o más
Cielo nuboso a una altura de 5800 ft

METAR: NWWW 181330Z AUTO VRB02KT 9999 BKN058 22/18 Q1013 NOSIG

Hora: 00:53 (13:53 UTC)

Pronóstico

El informe se hizo hace 2 horas y 53 minutos, a las 11:00 UTC
Pronóstico válido del 18 a las 12 UTC al 19 a las 12 UTC
Viento 6 kt del sureste
Visibilidad 10 km o más
Escasas nubes a una altura de 4000 ft
Evolucionando progresivamente
del 18 a las 22 UTC al 18 a las 24 UTC
Viento 20 kt del sur-sureste
Evolucionando progresivamente
del 19 a las 08 UTC al 19 a las 10 UTC
Viento 8 kt del sureste

TAF: NWWW 181100Z 1812/1912 14006KT 9999 FEW040 BECMG 1822/1824 15020KT BECMG 1908/1910 13008KT

Observaciones y pronósticos meteorológicos de más de 4000 aeropuertos (mensajes METAR y TAF).

Los puntos amarillos y rojos representan las estaciones disponibles.

Ponga el ratón en el punto deseado para ver el nombre de la estación.

Haga clic para ver las observaciones y los pronósticos meteorológicos.

Para cambiar el mapa : haga clic en los botones verdes con una cruz de color negro para hacer un zoom, en el botón verde con un guión para alejar o en las flechas verdes para mapas adyacentes.


METAR-TAF: